createdAt,value
2023-03-16T00:01:08.710Z,98756.56
2023-03-16T00:03:37.325Z,98743.91
2023-03-16T00:06:08.020Z,98744.94
2023-03-16T00:08:37.206Z,98736.63
2023-03-16T00:11:05.687Z,98737.88
2023-03-16T00:13:34.223Z,98734.16
2023-03-16T00:16:04.892Z,98731.44
2023-03-16T00:18:39.101Z,98726.69
2023-03-16T00:21:09.417Z,98719.63
2023-03-16T00:23:38.192Z,98715.06
2023-03-16T00:26:09.179Z,98711.13
2023-03-16T00:28:38.880Z,98705.94
2023-03-16T00:31:09.510Z,98698.03
2023-03-16T00:33:37.878Z,98698.03
2023-03-16T00:36:11.556Z,98707.16
2023-03-16T00:38:45.614Z,98705.50
2023-03-16T00:41:15.794Z,98698.03
2023-03-16T00:43:45.569Z,98696.38
2023-03-16T00:46:16.414Z,98696.81
2023-03-16T00:48:47.710Z,98683.53
2023-03-16T00:51:19.301Z,98678.13
2023-03-16T00:53:48.228Z,98688.72
2023-03-16T00:56:18.175Z,98689.75
2023-03-16T00:58:46.646Z,98678.94
2023-03-16T01:01:16.381Z,98679.97
2023-03-16T01:03:45.474Z,98680.41
2023-03-16T01:06:17.329Z,98680.41
2023-03-16T01:08:47.501Z,98667.94
2023-03-16T01:11:25.484Z,98660.47
2023-03-16T01:13:55.493Z,98665.25
2023-03-16T01:16:24.434Z,98664.00
2023-03-16T01:18:53.962Z,98662.34
2023-03-16T01:21:23.389Z,98666.91
2023-03-16T01:23:56.975Z,98660.28
2023-03-16T01:26:25.608Z,98654.03
2023-03-16T01:28:55.054Z,98643.88
2023-03-16T01:31:24.217Z,98642.44
2023-03-16T01:33:53.434Z,98638.06
2023-03-16T01:36:25.239Z,98634.72
2023-03-16T01:39:10.794Z,98628.72
2023-03-16T01:41:45.920Z,98617.94
2023-03-16T01:44:16.202Z,98623.31
2023-03-16T01:46:45.017Z,98615.84
2023-03-16T01:49:15.444Z,98620.22
2023-03-16T01:51:47.949Z,98626.25
2023-03-16T01:54:27.325Z,98626.63
2023-03-16T01:57:04.770Z,98618.31
2023-03-16T01:59:37.179Z,98598.41
2023-03-16T02:02:06.343Z,98612.94
2023-03-16T02:04:44.784Z,98600.91
2023-03-16T02:07:18.575Z,98590.09
2023-03-16T02:09:53.675Z,98589.06
2023-03-16T02:12:23.756Z,98587.41
2023-03-16T02:14:55.871Z,98578.88
2023-03-16T02:17:27.495Z,98577.25
2023-03-16T02:20:14.111Z,98571.41
2023-03-16T02:22:45.395Z,98562.91
2023-03-16T02:25:20.291Z,98547.72
2023-03-16T02:27:57.728Z,98549.81
2023-03-16T02:30:29.093Z,98542.75
2023-03-16T02:33:02.910Z,98541.72
2023-03-16T02:35:31.398Z,98536.94
2023-03-16T02:38:00.401Z,98538.59
2023-03-16T02:40:35.202Z,98531.97
2023-03-16T02:43:11.513Z,98539.22
2023-03-16T02:45:50.002Z,98539.63
2023-03-16T02:48:24.782Z,98536.50
2023-03-16T02:50:55.721Z,98533.22
2023-03-16T02:53:24.858Z,98530.31
2023-03-16T02:55:54.514Z,98525.72
2023-03-16T02:58:23.189Z,98522.84
2023-03-16T03:00:53.701Z,98508.72
2023-03-16T03:03:22.575Z,98501.84
2023-03-16T03:05:50.974Z,98497.09
2023-03-16T03:08:20.778Z,98490.03
2023-03-16T03:10:49.791Z,98491.06
2023-03-16T03:13:18.144Z,98499.56
2023-03-16T03:15:47.060Z,98479.66
2023-03-16T03:18:17.460Z,98488.78
2023-03-16T03:20:46.318Z,98494.59
2023-03-16T03:23:15.577Z,98477.56
2023-03-16T03:25:44.319Z,98479.22
2023-03-16T03:28:13.688Z,98476.31
2023-03-16T03:30:42.934Z,98477.97
2023-03-16T03:33:11.880Z,98467.41
2023-03-16T03:35:43.386Z,98460.94
2023-03-16T03:38:12.407Z,98463.03
2023-03-16T03:40:45.463Z,98458.06
2023-03-16T03:43:14.957Z,98443.13
2023-03-16T03:45:46.477Z,98448.75
2023-03-16T03:48:15.857Z,98442.31
2023-03-16T03:50:45.980Z,98439.00
2023-03-16T03:53:40.289Z,98444.38
2023-03-16T03:56:31.841Z,98435.25
2023-03-16T03:59:00.363Z,98425.13
2023-03-16T04:01:55.043Z,98417.84
2023-03-16T04:04:26.330Z,98411.63
2023-03-16T04:06:56.648Z,98406.25
2023-03-16T04:09:25.299Z,98405.38
2023-03-16T04:11:53.854Z,98401.25
2023-03-16T04:14:22.249Z,98408.50
2023-03-16T04:16:51.108Z,98400.84
2023-03-16T04:19:20.074Z,98393.34
2023-03-16T04:21:48.967Z,98418.28
2023-03-16T04:24:22.510Z,98430.31
2023-03-16T04:26:51.345Z,98418.28
2023-03-16T04:29:19.985Z,98420.34
2023-03-16T04:31:49.820Z,98405.81
2023-03-16T04:34:19.073Z,98409.53
2023-03-16T04:36:47.150Z,98409.38
2023-03-16T04:39:15.597Z,98412.69
2023-03-16T04:41:45.202Z,98402.50
2023-03-16T04:44:19.326Z,98407.25
2023-03-16T04:46:47.869Z,98398.34
2023-03-16T04:49:16.097Z,98403.91
2023-03-16T04:51:46.486Z,98404.53
2023-03-16T04:54:18.806Z,98404.13
2023-03-16T04:56:48.925Z,98402.44
2023-03-16T04:59:35.616Z,98410.09
2023-03-16T05:02:17.018Z,98385.81
2023-03-16T05:04:45.533Z,98389.34
2023-03-16T05:07:14.017Z,98388.34
2023-03-16T05:09:47.133Z,98384.19
2023-03-16T05:12:17.470Z,98385.44
2023-03-16T05:14:47.286Z,98375.91
2023-03-16T05:17:37.206Z,98373.19
2023-03-16T05:20:08.476Z,98378.00
2023-03-16T05:22:42.417Z,98369.25
2023-03-16T05:25:16.772Z,98363.69
2023-03-16T05:27:54.086Z,98371.16
2023-03-16T05:30:31.450Z,98364.75
2023-03-16T05:33:03.293Z,98361.84
2023-03-16T05:35:32.600Z,98352.31
2023-03-16T05:38:06.332Z,98349.66
2023-03-16T05:40:37.990Z,98340.13
2023-03-16T05:43:17.006Z,98335.75
2023-03-16T05:45:50.770Z,98340.56
2023-03-16T05:48:21.359Z,98334.94
2023-03-16T05:50:55.155Z,98330.00
2023-03-16T05:53:29.644Z,98315.06
2023-03-16T05:56:06.182Z,98341.81
2023-03-16T05:58:39.076Z,98336.63
2023-03-16T06:01:10.806Z,98332.06
2023-03-16T06:03:39.334Z,98334.16
2023-03-16T06:06:10.135Z,98336.84
2023-03-16T06:08:50.015Z,98340.59
2023-03-16T06:11:20.435Z,98346.56
2023-03-16T06:13:50.350Z,98341.41
2023-03-16T06:16:19.599Z,98337.06
2023-03-16T06:18:48.299Z,98344.31
2023-03-16T06:21:16.731Z,98348.25
2023-03-16T06:23:46.848Z,98335.00
2023-03-16T06:26:16.153Z,98335.00
2023-03-16T06:28:46.846Z,98331.69
2023-03-16T06:31:16.933Z,98332.72
2023-03-16T06:33:47.624Z,98336.88
2023-03-16T06:36:16.041Z,98346.84
2023-03-16T06:38:48.605Z,98340.38
2023-03-16T06:41:30.425Z,98325.28
2023-03-16T06:43:58.973Z,98333.97
2023-03-16T06:46:29.820Z,98330.03
2023-03-16T06:49:01.274Z,98352.84
2023-03-16T06:51:29.809Z,98351.00
2023-03-16T06:53:58.559Z,98349.97
2023-03-16T06:56:28.081Z,98345.19
2023-03-16T06:58:57.751Z,98350.34
2023-03-16T07:01:26.159Z,98351.16
2023-03-16T07:03:55.968Z,98349.34
2023-03-16T07:06:29.835Z,98340.38
2023-03-16T07:08:58.444Z,98340.81
2023-03-16T07:11:26.984Z,98330.03
2023-03-16T07:13:55.094Z,98336.06
2023-03-16T07:16:24.590Z,98330.66
2023-03-16T07:18:55.434Z,98329.59
2023-03-16T07:21:24.136Z,98331.25
2023-03-16T07:23:53.260Z,98322.56
2023-03-16T07:26:26.220Z,98329.59
2023-03-16T07:29:01.204Z,98337.28
2023-03-16T07:31:32.576Z,98333.09
2023-03-16T07:34:05.469Z,98338.31
2023-03-16T07:36:44.535Z,98339.72
2023-03-16T07:39:14.653Z,98341.38
2023-03-16T07:41:44.022Z,98345.97
2023-03-16T07:44:17.615Z,98342.81
2023-03-16T07:46:50.014Z,98346.13
2023-03-16T07:49:20.880Z,98351.50
2023-03-16T07:51:51.827Z,98346.97
2023-03-16T07:54:24.748Z,98352.75
2023-03-16T07:56:53.275Z,98359.00
2023-03-16T07:59:31.568Z,98363.09
2023-03-16T08:02:00.578Z,98371.59
2023-03-16T08:04:30.515Z,98374.31
2023-03-16T08:07:02.441Z,98373.66
2023-03-16T08:09:45.434Z,98371.59
2023-03-16T08:12:18.959Z,98375.91
2023-03-16T08:14:48.105Z,98375.69
2023-03-16T08:17:20.466Z,98375.06
2023-03-16T08:19:51.894Z,98379.19
2023-03-16T08:22:22.398Z,98381.25
2023-03-16T08:24:50.902Z,98383.31
2023-03-16T08:27:20.615Z,98386.16
2023-03-16T08:29:54.347Z,98382.66
2023-03-16T08:32:26.461Z,98382.84
2023-03-16T08:34:57.375Z,98383.66
2023-03-16T08:37:27.470Z,98390.28
2023-03-16T08:39:58.197Z,98382.78
2023-03-16T08:42:28.934Z,98393.53
2023-03-16T08:45:08.112Z,98397.66
2023-03-16T08:47:36.793Z,98376.88
2023-03-16T08:50:08.581Z,98384.09
2023-03-16T08:52:37.862Z,98389.22
2023-03-16T08:55:07.786Z,98377.97
2023-03-16T08:57:36.477Z,98374.69
2023-03-16T09:00:12.854Z,98370.91
2023-03-16T09:02:41.763Z,98363.25
2023-03-16T09:05:15.033Z,98352.22
2023-03-16T09:07:44.172Z,98340.63
2023-03-16T09:10:16.502Z,98337.25
2023-03-16T09:12:45.081Z,98337.19
2023-03-16T09:15:15.080Z,98345.34
2023-03-16T09:17:45.282Z,98356.97
2023-03-16T09:20:26.386Z,98360.28
2023-03-16T09:22:56.713Z,98362.47
2023-03-16T09:25:26.268Z,98364.25
2023-03-16T09:27:54.680Z,98364.13
2023-03-16T09:30:23.296Z,98357.72
2023-03-16T09:32:51.677Z,98359.63
2023-03-16T09:35:21.623Z,98358.91
2023-03-16T09:38:05.133Z,98367.50
2023-03-16T09:40:34.242Z,98363.47
2023-03-16T09:43:26.476Z,98365.94
2023-03-16T09:46:05.677Z,98357.34
2023-03-16T09:48:36.383Z,98351.19
2023-03-16T09:51:09.771Z,98348.38
2023-03-16T09:53:40.772Z,98345.75
2023-03-16T09:56:13.724Z,98350.19
2023-03-16T09:58:42.351Z,98348.63
2023-03-16T10:01:19.144Z,98338.25
2023-03-16T10:04:00.808Z,98330.13
2023-03-16T10:06:31.402Z,98337.59
2023-03-16T10:09:08.307Z,98329.00
2023-03-16T10:11:41.299Z,98333.03
2023-03-16T10:14:19.771Z,98338.66
2023-03-16T10:16:51.694Z,98342.34
2023-03-16T10:19:24.808Z,98347.59
2023-03-16T10:21:58.139Z,98348.19
2023-03-16T10:24:45.066Z,98345.63
2023-03-16T10:27:21.852Z,98352.97
2023-03-16T10:29:50.603Z,98361.59
2023-03-16T10:32:20.273Z,98369.88
2023-03-16T10:34:56.433Z,98365.97
2023-03-16T10:37:28.393Z,98365.81
2023-03-16T10:39:57.387Z,98357.59
2023-03-16T10:42:27.247Z,98354.53
2023-03-16T10:45:02.646Z,98349.34
2023-03-16T10:47:33.794Z,98346.63
2023-03-16T10:50:14.749Z,98340.63
2023-03-16T10:52:48.202Z,98339.00
2023-03-16T10:55:21.441Z,98328.63
2023-03-16T10:57:52.004Z,98324.50
2023-03-16T11:00:24.358Z,98332.13
2023-03-16T11:02:55.512Z,98330.00
2023-03-16T11:05:31.687Z,98325.53
2023-03-16T11:08:09.561Z,98328.00
2023-03-16T11:10:49.448Z,98333.75
2023-03-16T11:13:22.788Z,98337.63
2023-03-16T11:15:57.498Z,98340.28
2023-03-16T11:18:32.799Z,98346.25
2023-03-16T11:21:08.689Z,98346.03
2023-03-16T11:23:42.343Z,98336.06
2023-03-16T11:26:21.322Z,98332.16
2023-03-16T11:28:54.628Z,98335.47
2023-03-16T11:31:33.828Z,98328.41
2023-03-16T11:34:02.967Z,98327.13
2023-03-16T11:36:45.795Z,98325.31
2023-03-16T11:39:28.489Z,98315.41
2023-03-16T11:42:10.929Z,98308.69
2023-03-16T11:44:47.479Z,98314.44
2023-03-16T11:47:35.663Z,98312.56
2023-03-16T11:50:16.228Z,98323.13
2023-03-16T11:52:55.675Z,98320.78
2023-03-16T11:55:36.081Z,98321.91
2023-03-16T11:58:29.388Z,98314.06
2023-03-16T12:01:07.548Z,98306.59
2023-03-16T12:04:02.282Z,98304.47
2023-03-16T12:06:41.636Z,98275.63
2023-03-16T12:09:43.388Z,98261.59
2023-03-16T12:12:27.171Z,98259.44
2023-03-16T12:15:09.860Z,98252.84
2023-03-16T12:17:40.978Z,98243.97
2023-03-16T12:20:19.114Z,98249.53
2023-03-16T12:22:51.666Z,98231.75
2023-03-16T12:25:24.913Z,98249.31
2023-03-16T12:27:58.479Z,98254.28
2023-03-16T12:30:41.183Z,98257.13
2023-03-16T12:33:18.052Z,98245.97
2023-03-16T12:35:51.013Z,98258.31
2023-03-16T12:38:34.773Z,98259.66
2023-03-16T12:41:12.588Z,98246.78
2023-03-16T12:43:57.728Z,98265.16
2023-03-16T12:46:34.837Z,98273.25
2023-03-16T12:49:06.175Z,98277.78
2023-03-16T12:51:36.599Z,98276.38
2023-03-16T12:54:06.259Z,98267.69
2023-03-16T12:56:36.846Z,98263.00
2023-03-16T12:59:10.199Z,98260.34
2023-03-16T13:01:43.812Z,98262.06
2023-03-16T13:04:16.099Z,98265.72
2023-03-16T13:06:48.534Z,98273.50
2023-03-16T13:09:21.711Z,98265.94
2023-03-16T13:11:51.540Z,98260.38
2023-03-16T13:14:38.289Z,98253.66
2023-03-16T13:17:23.725Z,98243.78
2023-03-16T13:20:30.900Z,98247.19
2023-03-16T13:23:22.329Z,98231.44
2023-03-16T13:26:07.435Z,98238.03
2023-03-16T13:28:38.892Z,98232.91
2023-03-16T13:31:23.644Z,98239.09
2023-03-16T13:33:55.130Z,98245.25
2023-03-16T13:36:25.713Z,98247.59
2023-03-16T13:38:58.783Z,98231.94
2023-03-16T13:41:27.304Z,98231.44
2023-03-16T13:43:55.945Z,98244.78
2023-03-16T13:46:30.625Z,98236.72
2023-03-16T13:49:01.419Z,98233.41
2023-03-16T13:51:32.142Z,98250.09
2023-03-16T13:54:05.495Z,98244.16
2023-03-16T13:56:35.189Z,98231.72
2023-03-16T13:59:04.120Z,98261.19
2023-03-16T14:01:34.496Z,98243.31
2023-03-16T14:04:08.957Z,98240.72
2023-03-16T14:06:38.719Z,98239.22
2023-03-16T14:09:09.457Z,98241.91
2023-03-16T14:11:37.767Z,98231.44
2023-03-16T14:14:16.032Z,98234.06
2023-03-16T14:16:45.890Z,98238.34
2023-03-16T14:19:19.314Z,98230.13
2023-03-16T14:21:48.351Z,98229.88
2023-03-16T14:24:31.039Z,98242.16
2023-03-16T14:27:11.293Z,98234.50
2023-03-16T14:29:43.915Z,98235.56
2023-03-16T14:32:28.181Z,98224.19
2023-03-16T14:35:13.052Z,98229.41
2023-03-16T14:37:42.484Z,98238.78
2023-03-16T14:40:25.955Z,98246.75
2023-03-16T14:42:56.131Z,98250.13
2023-03-16T14:45:25.959Z,98256.88
2023-03-16T14:47:55.764Z,98249.16
2023-03-16T14:50:26.462Z,98257.50
2023-03-16T14:52:57.516Z,98241.81
2023-03-16T14:55:26.019Z,98242.19
2023-03-16T14:57:54.487Z,98245.81
2023-03-16T15:00:23.516Z,98241.66
2023-03-16T15:02:59.808Z,98241.44
2023-03-16T15:05:35.150Z,98236.38
2023-03-16T15:08:06.102Z,98225.28
2023-03-16T15:10:37.436Z,98223.66
2023-03-16T15:13:16.950Z,98222.31
2023-03-16T15:15:48.751Z,98224.13
2023-03-16T15:18:18.475Z,98225.84
2023-03-16T15:20:49.770Z,98218.09
2023-03-16T15:23:18.637Z,98228.31
2023-03-16T15:25:49.555Z,98241.72
2023-03-16T15:28:19.817Z,98232.50
2023-03-16T15:30:50.259Z,98222.38
2023-03-16T15:33:20.378Z,98215.91
2023-03-16T15:35:50.543Z,98211.13
2023-03-16T15:38:23.989Z,98208.09
2023-03-16T15:40:53.288Z,98204.53
2023-03-16T15:43:24.687Z,98207.19
2023-03-16T15:45:54.491Z,98195.28
2023-03-16T15:48:25.591Z,98207.47
2023-03-16T15:50:56.001Z,98194.72
2023-03-16T15:53:31.309Z,98186.16
2023-03-16T15:56:04.433Z,98189.47
2023-03-16T15:58:35.493Z,98190.13
2023-03-16T16:01:05.489Z,98191.44
2023-03-16T16:03:35.576Z,98193.81
2023-03-16T16:06:03.872Z,98201.16
2023-03-16T16:08:32.259Z,98194.34
2023-03-16T16:11:00.636Z,98190.88
2023-03-16T16:13:43.537Z,98187.50
2023-03-16T16:16:14.759Z,98193.91
2023-03-16T16:18:45.008Z,98187.56
2023-03-16T16:21:19.260Z,98184.41
2023-03-16T16:23:47.952Z,98193.34
2023-03-16T16:26:34.243Z,98207.16
2023-03-16T16:29:14.602Z,98190.94
2023-03-16T16:31:43.675Z,98187.03
2023-03-16T16:34:17.335Z,98181.69
2023-03-16T16:36:45.751Z,98183.25
2023-03-16T16:39:14.054Z,98179.84
2023-03-16T16:41:44.349Z,98174.13
2023-03-16T16:44:18.581Z,98186.63
2023-03-16T16:46:49.300Z,98186.91
2023-03-16T16:49:22.628Z,98182.09
2023-03-16T16:51:51.608Z,98184.22
2023-03-16T16:54:21.492Z,98188.34
2023-03-16T16:56:52.009Z,98195.44
2023-03-16T16:59:21.989Z,98185.56
2023-03-16T17:01:51.984Z,98196.97
2023-03-16T17:04:24.855Z,98196.28
2023-03-16T17:06:55.734Z,98197.81
2023-03-16T17:09:24.999Z,98206.41
2023-03-16T17:11:56.306Z,98210.31
2023-03-16T17:14:27.686Z,98222.09
2023-03-16T17:16:57.092Z,98226.47
2023-03-16T17:19:28.798Z,98223.94
2023-03-16T17:21:59.398Z,98233.16
2023-03-16T17:24:28.877Z,98230.22
2023-03-16T17:27:00.786Z,98233.03
2023-03-16T17:29:32.264Z,98232.47
2023-03-16T17:32:02.472Z,98240.00
2023-03-16T17:34:34.165Z,98233.16
2023-03-16T17:37:02.872Z,98244.13
2023-03-16T17:39:33.970Z,98247.75
2023-03-16T17:42:06.240Z,98253.75
2023-03-16T17:44:38.148Z,98254.19
2023-03-16T17:47:14.978Z,98264.66
2023-03-16T17:49:49.099Z,98280.91
2023-03-16T17:52:19.827Z,98284.41
2023-03-16T17:54:48.605Z,98289.00
2023-03-16T17:57:19.540Z,98292.41
2023-03-16T17:59:49.027Z,98292.84
2023-03-16T18:02:38.564Z,98295.78
2023-03-16T18:05:18.256Z,98299.09
2023-03-16T18:07:46.799Z,98299.41
2023-03-16T18:10:17.976Z,98313.50
2023-03-16T18:12:47.057Z,98312.31
2023-03-16T18:15:18.327Z,98307.09
2023-03-16T18:17:47.220Z,98298.81
2023-03-16T18:20:24.777Z,98300.66
2023-03-16T18:22:53.419Z,98303.19
2023-03-16T18:25:33.569Z,98308.63
2023-03-16T18:28:02.831Z,98315.06
2023-03-16T18:30:32.955Z,98300.22
2023-03-16T18:33:03.227Z,98304.88
2023-03-16T18:35:33.459Z,98315.16
2023-03-16T18:38:02.047Z,98321.41
2023-03-16T18:40:30.858Z,98316.44
2023-03-16T18:42:59.874Z,98330.44
2023-03-16T18:45:30.126Z,98333.06
2023-03-16T18:47:59.128Z,98335.16
2023-03-16T18:50:30.359Z,98337.97
2023-03-16T18:53:00.215Z,98337.63
2023-03-16T18:55:29.486Z,98346.22
2023-03-16T18:57:59.187Z,98352.50
2023-03-16T19:00:29.814Z,98347.09
2023-03-16T19:03:01.425Z,98346.69
2023-03-16T19:05:36.104Z,98355.88
2023-03-16T19:08:06.846Z,98350.91
2023-03-16T19:10:37.585Z,98355.09
2023-03-16T19:13:14.685Z,98354.31
2023-03-16T19:15:43.488Z,98352.47
2023-03-16T19:18:12.090Z,98359.78
2023-03-16T19:20:41.361Z,98354.78
2023-03-16T19:23:19.831Z,98359.38
2023-03-16T19:25:49.166Z,98349.44
2023-03-16T19:28:27.132Z,98354.03
2023-03-16T19:30:56.461Z,98347.81
2023-03-16T19:33:26.961Z,98345.31
2023-03-16T19:35:56.111Z,98348.66
2023-03-16T19:38:28.166Z,98359.47
2023-03-16T19:40:58.900Z,98360.31
2023-03-16T19:43:28.900Z,98366.53
2023-03-16T19:45:58.989Z,98374.03
2023-03-16T19:48:33.026Z,98389.34
2023-03-16T19:51:02.245Z,98388.75
2023-03-16T19:53:33.020Z,98396.41
2023-03-16T19:56:02.058Z,98394.56
2023-03-16T19:58:32.752Z,98392.28
2023-03-16T20:01:01.252Z,98380.28
2023-03-16T20:03:29.885Z,98388.38
2023-03-16T20:05:58.160Z,98384.22
2023-03-16T20:08:27.690Z,98384.66
2023-03-16T20:11:02.190Z,98392.97
2023-03-16T20:13:31.896Z,98388.59
2023-03-16T20:16:00.646Z,98389.84
2023-03-16T20:18:30.562Z,98401.69
2023-03-16T20:20:59.193Z,98408.72
2023-03-16T20:23:30.073Z,98414.53
2023-03-16T20:26:03.236Z,98408.94
2023-03-16T20:28:36.156Z,98412.69
2023-03-16T20:31:08.121Z,98407.72
2023-03-16T20:33:36.840Z,98406.03
2023-03-16T20:36:05.201Z,98412.66
2023-03-16T20:38:33.298Z,98413.31
2023-03-16T20:41:03.317Z,98414.34
2023-03-16T20:43:33.892Z,98415.34
2023-03-16T20:46:04.234Z,98412.66
2023-03-16T20:48:32.985Z,98414.13
2023-03-16T20:51:01.672Z,98408.72
2023-03-16T20:53:30.298Z,98415.13
2023-03-16T20:55:58.767Z,98416.81
2023-03-16T20:58:29.307Z,98418.25
2023-03-16T21:00:58.440Z,98420.09
2023-03-16T21:03:29.582Z,98418.84
2023-03-16T21:06:04.813Z,98424.25
2023-03-16T21:08:37.337Z,98422.59
2023-03-16T21:11:25.078Z,98437.91
2023-03-16T21:14:02.105Z,98427.56
2023-03-16T21:16:38.753Z,98434.81
2023-03-16T21:19:19.664Z,98437.09
2023-03-16T21:21:54.911Z,98438.34
2023-03-16T21:24:27.267Z,98443.72
2023-03-16T21:26:57.953Z,98444.97
2023-03-16T21:29:35.806Z,98450.59
2023-03-16T21:32:23.224Z,98452.06
2023-03-16T21:34:58.176Z,98450.41
2023-03-16T21:37:33.506Z,98452.44
2023-03-16T21:40:13.139Z,98464.69
2023-03-16T21:42:49.166Z,98473.19
2023-03-16T21:45:27.926Z,98469.25
2023-03-16T21:48:03.280Z,98472.78
2023-03-16T21:50:40.572Z,98471.53
2023-03-16T21:53:26.713Z,98473.19
2023-03-16T21:56:01.811Z,98471.53
2023-03-16T21:58:34.927Z,98470.28
2023-03-16T22:01:08.036Z,98468.00
2023-03-16T22:03:51.068Z,98466.13
2023-03-16T22:06:21.244Z,98465.94
2023-03-16T22:08:51.359Z,98470.28
2023-03-16T22:11:22.630Z,98469.06
2023-03-16T22:13:53.688Z,98461.56
2023-03-16T22:16:28.753Z,98470.50
2023-03-16T22:18:59.809Z,98469.88
2023-03-16T22:21:33.558Z,98473.19
2023-03-16T22:24:06.260Z,98468.63
2023-03-16T22:26:35.835Z,98471.34
2023-03-16T22:29:22.143Z,98477.75
2023-03-16T22:31:55.606Z,98468.22
2023-03-16T22:34:31.421Z,98472.38
2023-03-16T22:37:03.654Z,98476.50
2023-03-16T22:39:36.628Z,98477.34
2023-03-16T22:42:13.001Z,98465.31
2023-03-16T22:44:44.640Z,98476.09
2023-03-16T22:47:22.890Z,98469.25
2023-03-16T22:49:52.902Z,98466.56
2023-03-16T22:52:25.561Z,98470.28
2023-03-16T22:54:56.467Z,98465.31
2023-03-16T22:57:25.524Z,98465.31
2023-03-16T22:59:54.453Z,98451.25
2023-03-16T23:02:28.163Z,98455.78
2023-03-16T23:04:57.802Z,98455.78
2023-03-16T23:07:26.190Z,98447.06
2023-03-16T23:09:55.767Z,98451.19
2023-03-16T23:12:26.896Z,98441.88
2023-03-16T23:14:57.387Z,98442.47
2023-03-16T23:17:30.707Z,98441.44
2023-03-16T23:19:59.429Z,98438.97
2023-03-16T23:22:28.721Z,98442.94
2023-03-16T23:24:59.107Z,98454.97
2023-03-16T23:27:29.863Z,98443.75
2023-03-16T23:29:59.466Z,98443.34
2023-03-16T23:32:31.324Z,98453.28
2023-03-16T23:35:02.053Z,98444.59
2023-03-16T23:37:31.764Z,98435.47
2023-03-16T23:40:01.418Z,98435.47
2023-03-16T23:42:29.851Z,98437.09
2023-03-16T23:45:01.234Z,98443.94
2023-03-16T23:47:31.315Z,98454.94
2023-03-16T23:50:03.832Z,98451.22
2023-03-16T23:52:38.816Z,98447.50
2023-03-16T23:55:19.359Z,98443.53
2023-03-16T23:57:49.349Z,98448.72
